sensor_id;sensor_type;location;lat;lon;timestamp;P1;durP1;ratioP1;P2;durP2;ratioP2
31210;SDS011;17836;50.948;3.946;2022-07-18T00:00:13;1.97;;;1.33;;
31210;SDS011;17836;50.948;3.946;2022-07-18T00:02:39;1.95;;;1.52;;
31210;SDS011;17836;50.948;3.946;2022-07-18T00:05:04;2.08;;;1.00;;
31210;SDS011;17836;50.948;3.946;2022-07-18T00:07:30;3.17;;;1.00;;
31210;SDS011;17836;50.948;3.946;2022-07-18T00:09:55;1.37;;;1.03;;
31210;SDS011;17836;50.948;3.946;2022-07-18T00:12:20;1.23;;;1.03;;
31210;SDS011;17836;50.948;3.946;2022-07-18T00:14:46;1.03;;;0.93;;
31210;SDS011;17836;50.948;3.946;2022-07-18T00:17:11;1.33;;;0.70;;
31210;SDS011;17836;50.948;3.946;2022-07-18T00:19:36;1.73;;;1.25;;
31210;SDS011;17836;50.948;3.946;2022-07-18T00:22:02;1.83;;;0.98;;
31210;SDS011;17836;50.948;3.946;2022-07-18T00:24:28;3.70;;;0.80;;
31210;SDS011;17836;50.948;3.946;2022-07-18T00:26:53;1.80;;;1.05;;
31210;SDS011;17836;50.948;3.946;2022-07-18T00:29:19;1.52;;;0.98;;
31210;SDS011;17836;50.948;3.946;2022-07-18T00:31:45;1.83;;;1.10;;
31210;SDS011;17836;50.948;3.946;2022-07-18T00:34:10;0.82;;;0.75;;
31210;SDS011;17836;50.948;3.946;2022-07-18T00:36:36;0.90;;;0.88;;
31210;SDS011;17836;50.948;3.946;2022-07-18T00:39:02;0.75;;;0.73;;
31210;SDS011;17836;50.948;3.946;2022-07-18T00:41:27;1.35;;;0.93;;
31210;SDS011;17836;50.948;3.946;2022-07-18T00:43:52;4.07;;;0.90;;
31210;SDS011;17836;50.948;3.946;2022-07-18T00:46:22;1.92;;;1.05;;
31210;SDS011;17836;50.948;3.946;2022-07-18T00:48:47;1.55;;;0.93;;
31210;SDS011;17836;50.948;3.946;2022-07-18T00:51:13;1.10;;;1.00;;
31210;SDS011;17836;50.948;3.946;2022-07-18T00:53:38;1.33;;;1.20;;
31210;SDS011;17836;50.948;3.946;2022-07-18T00:56:04;1.67;;;0.90;;
31210;SDS011;17836;50.948;3.946;2022-07-18T00:58:29;1.52;;;1.17;;
31210;SDS011;17836;50.948;3.946;2022-07-18T01:00:57;1.67;;;1.02;;
31210;SDS011;17836;50.948;3.946;2022-07-18T01:03:41;1.00;;;0.90;;
31210;SDS011;17836;50.948;3.946;2022-07-18T01:06:06;1.77;;;1.17;;
31210;SDS011;17836;50.948;3.946;2022-07-18T01:08:32;1.70;;;1.10;;
31210;SDS011;17836;50.948;3.946;2022-07-18T01:10:57;1.42;;;1.10;;
31210;SDS011;17836;50.948;3.946;2022-07-18T01:13:23;1.70;;;1.08;;
31210;SDS011;17836;50.948;3.946;2022-07-18T01:15:48;6.50;;;1.20;;
31210;SDS011;17836;50.948;3.946;2022-07-18T01:18:14;1.85;;;0.93;;
31210;SDS011;17836;50.948;3.946;2022-07-18T01:20:39;1.60;;;1.37;;
31210;SDS011;17836;50.948;3.946;2022-07-18T01:23:04;1.13;;;1.03;;
31210;SDS011;17836;50.948;3.946;2022-07-18T01:25:30;1.92;;;0.90;;
31210;SDS011;17836;50.948;3.946;2022-07-18T01:27:56;1.52;;;0.95;;
31210;SDS011;17836;50.948;3.946;2022-07-18T01:30:22;2.45;;;1.33;;
31210;SDS011;17836;50.948;3.946;2022-07-18T01:32:53;2.78;;;1.00;;
31210;SDS011;17836;50.948;3.946;2022-07-18T01:35:21;1.55;;;1.20;;
31210;SDS011;17836;50.948;3.946;2022-07-18T01:37:48;1.80;;;1.20;;
31210;SDS011;17836;50.948;3.946;2022-07-18T01:40:14;1.30;;;0.98;;
31210;SDS011;17836;50.948;3.946;2022-07-18T01:42:40;2.47;;;1.20;;
31210;SDS011;17836;50.948;3.946;2022-07-18T01:45:05;1.73;;;1.20;;
31210;SDS011;17836;50.948;3.946;2022-07-18T01:47:30;3.25;;;1.67;;
31210;SDS011;17836;50.948;3.946;2022-07-18T01:49:56;1.30;;;1.20;;
31210;SDS011;17836;50.948;3.946;2022-07-18T01:52:22;1.70;;;1.25;;
31210;SDS011;17836;50.948;3.946;2022-07-18T01:54:47;2.87;;;1.27;;
31210;SDS011;17836;50.948;3.946;2022-07-18T01:57:13;1.40;;;1.10;;
31210;SDS011;17836;50.948;3.946;2022-07-18T01:59:38;1.40;;;1.17;;
31210;SDS011;17836;50.948;3.946;2022-07-18T02:02:04;1.67;;;1.30;;
31210;SDS011;17836;50.948;3.946;2022-07-18T02:04:29;1.67;;;1.30;;
31210;SDS011;17836;50.948;3.946;2022-07-18T02:07:13;1.73;;;1.02;;
31210;SDS011;17836;50.948;3.946;2022-07-18T02:09:39;1.40;;;1.20;;
31210;SDS011;17836;50.948;3.946;2022-07-18T02:12:04;3.30;;;1.63;;
31210;SDS011;17836;50.948;3.946;2022-07-18T02:14:30;2.63;;;1.30;;
31210;SDS011;17836;50.948;3.946;2022-07-18T02:16:55;3.83;;;1.20;;
31210;SDS011;17836;50.948;3.946;2022-07-18T02:19:20;2.30;;;1.25;;
31210;SDS011;17836;50.948;3.946;2022-07-18T02:21:45;1.83;;;1.30;;
31210;SDS011;17836;50.948;3.946;2022-07-18T02:24:11;1.13;;;1.00;;
31210;SDS011;17836;50.948;3.946;2022-07-18T02:26:36;1.38;;;1.10;;
31210;SDS011;17836;50.948;3.946;2022-07-18T02:29:02;2.35;;;1.40;;
31210;SDS011;17836;50.948;3.946;2022-07-18T02:31:27;2.03;;;1.30;;
31210;SDS011;17836;50.948;3.946;2022-07-18T02:33:53;3.50;;;1.27;;
31210;SDS011;17836;50.948;3.946;2022-07-18T02:36:18;1.77;;;1.20;;
31210;SDS011;17836;50.948;3.946;2022-07-18T02:38:43;1.73;;;1.17;;
31210;SDS011;17836;50.948;3.946;2022-07-18T02:41:09;6.63;;;1.58;;
31210;SDS011;17836;50.948;3.946;2022-07-18T02:43:34;1.40;;;1.27;;
31210;SDS011;17836;50.948;3.946;2022-07-18T02:45:59;1.70;;;1.20;;
31210;SDS011;17836;50.948;3.946;2022-07-18T02:48:25;2.10;;;1.27;;
31210;SDS011;17836;50.948;3.946;2022-07-18T02:50:50;1.92;;;1.55;;
31210;SDS011;17836;50.948;3.946;2022-07-18T02:53:15;1.10;;;0.93;;
31210;SDS011;17836;50.948;3.946;2022-07-18T02:55:40;2.55;;;1.17;;
31210;SDS011;17836;50.948;3.946;2022-07-18T02:58:06;2.57;;;1.37;;
31210;SDS011;17836;50.948;3.946;2022-07-18T03:00:31;2.47;;;1.37;;
31210;SDS011;17836;50.948;3.946;2022-07-18T03:02:56;1.63;;;1.20;;
31210;SDS011;17836;50.948;3.946;2022-07-18T03:05:21;2.67;;;1.70;;
31210;SDS011;17836;50.948;3.946;2022-07-18T03:07:49;4.35;;;1.80;;
31210;SDS011;17836;50.948;3.946;2022-07-18T03:10:14;4.53;;;1.60;;
31210;SDS011;17836;50.948;3.946;2022-07-18T03:12:40;3.87;;;1.20;;
31210;SDS011;17836;50.948;3.946;2022-07-18T03:15:06;6.65;;;1.92;;
31210;SDS011;17836;50.948;3.946;2022-07-18T03:17:31;6.53;;;2.75;;
31210;SDS011;17836;50.948;3.946;2022-07-18T03:19:56;2.67;;;1.37;;
31210;SDS011;17836;50.948;3.946;2022-07-18T03:22:22;5.55;;;1.67;;
31210;SDS011;17836;50.948;3.946;2022-07-18T03:24:47;3.65;;;1.70;;
31210;SDS011;17836;50.948;3.946;2022-07-18T03:27:13;2.10;;;1.40;;
31210;SDS011;17836;50.948;3.946;2022-07-18T03:29:38;4.40;;;2.47;;
31210;SDS011;17836;50.948;3.946;2022-07-18T03:32:03;5.07;;;1.70;;
31210;SDS011;17836;50.948;3.946;2022-07-18T03:34:29;1.63;;;1.30;;
31210;SDS011;17836;50.948;3.946;2022-07-18T03:36:54;3.50;;;1.33;;
31210;SDS011;17836;50.948;3.946;2022-07-18T03:39:19;3.63;;;1.83;;
31210;SDS011;17836;50.948;3.946;2022-07-18T03:41:44;5.40;;;2.07;;
31210;SDS011;17836;50.948;3.946;2022-07-18T03:44:10;4.10;;;1.60;;
31210;SDS011;17836;50.948;3.946;2022-07-18T03:46:35;2.50;;;1.80;;
31210;SDS011;17836;50.948;3.946;2022-07-18T03:49:00;4.57;;;1.33;;
31210;SDS011;17836;50.948;3.946;2022-07-18T03:51:25;2.07;;;1.33;;
31210;SDS011;17836;50.948;3.946;2022-07-18T03:53:51;1.90;;;1.65;;
31210;SDS011;17836;50.948;3.946;2022-07-18T03:56:16;2.70;;;1.63;;
31210;SDS011;17836;50.948;3.946;2022-07-18T03:58:41;1.67;;;1.10;;
31210;SDS011;17836;50.948;3.946;2022-07-18T04:01:07;2.63;;;1.50;;
31210;SDS011;17836;50.948;3.946;2022-07-18T04:03:32;3.15;;;1.83;;
31210;SDS011;17836;50.948;3.946;2022-07-18T04:05:57;2.37;;;1.37;;
31210;SDS011;17836;50.948;3.946;2022-07-18T04:08:23;6.28;;;1.33;;
31210;SDS011;17836;50.948;3.946;2022-07-18T04:10:48;2.03;;;1.20;;
31210;SDS011;17836;50.948;3.946;2022-07-18T04:13:13;2.00;;;1.50;;
31210;SDS011;17836;50.948;3.946;2022-07-18T04:15:40;2.28;;;1.10;;
31210;SDS011;17836;50.948;3.946;2022-07-18T04:18:06;4.57;;;1.88;;
31210;SDS011;17836;50.948;3.946;2022-07-18T04:20:32;3.15;;;1.60;;
31210;SDS011;17836;50.948;3.946;2022-07-18T04:22:59;3.85;;;1.65;;
31210;SDS011;17836;50.948;3.946;2022-07-18T04:25:25;2.17;;;1.42;;
31210;SDS011;17836;50.948;3.946;2022-07-18T04:27:50;1.63;;;1.15;;
31210;SDS011;17836;50.948;3.946;2022-07-18T04:30:17;1.80;;;1.50;;
31210;SDS011;17836;50.948;3.946;2022-07-18T04:32:42;4.32;;;1.38;;
31210;SDS011;17836;50.948;3.946;2022-07-18T04:35:08;2.83;;;1.20;;
31210;SDS011;17836;50.948;3.946;2022-07-18T04:37:33;1.88;;;1.60;;
31210;SDS011;17836;50.948;3.946;2022-07-18T04:39:59;4.78;;;1.30;;
31210;SDS011;17836;50.948;3.946;2022-07-18T04:42:25;3.40;;;1.65;;
31210;SDS011;17836;50.948;3.946;2022-07-18T04:44:51;3.78;;;1.90;;
31210;SDS011;17836;50.948;3.946;2022-07-18T04:47:17;1.63;;;1.50;;
31210;SDS011;17836;50.948;3.946;2022-07-18T04:49:45;7.68;;;2.38;;
31210;SDS011;17836;50.948;3.946;2022-07-18T04:52:10;2.72;;;1.85;;
31210;SDS011;17836;50.948;3.946;2022-07-18T04:54:35;3.30;;;1.80;;
31210;SDS011;17836;50.948;3.946;2022-07-18T04:57:00;2.07;;;1.60;;
31210;SDS011;17836;50.948;3.946;2022-07-18T04:59:26;2.47;;;1.57;;
31210;SDS011;17836;50.948;3.946;2022-07-18T05:01:51;2.53;;;1.60;;
31210;SDS011;17836;50.948;3.946;2022-07-18T05:04:16;2.35;;;1.58;;
31210;SDS011;17836;50.948;3.946;2022-07-18T05:06:42;3.33;;;1.40;;
31210;SDS011;17836;50.948;3.946;2022-07-18T05:09:07;3.88;;;1.27;;
31210;SDS011;17836;50.948;3.946;2022-07-18T05:11:32;1.73;;;1.13;;
31210;SDS011;17836;50.948;3.946;2022-07-18T05:13:58;1.65;;;1.30;;
31210;SDS011;17836;50.948;3.946;2022-07-18T05:16:23;2.63;;;1.30;;
31210;SDS011;17836;50.948;3.946;2022-07-18T05:18:49;2.78;;;1.85;;
31210;SDS011;17836;50.948;3.946;2022-07-18T05:21:14;2.10;;;1.70;;
31210;SDS011;17836;50.948;3.946;2022-07-18T05:23:40;4.13;;;1.83;;
31210;SDS011;17836;50.948;3.946;2022-07-18T05:26:05;2.33;;;1.75;;
31210;SDS011;17836;50.948;3.946;2022-07-18T05:28:30;3.42;;;2.10;;
31210;SDS011;17836;50.948;3.946;2022-07-18T05:30:56;2.23;;;1.60;;
31210;SDS011;17836;50.948;3.946;2022-07-18T05:33:21;2.08;;;1.30;;
31210;SDS011;17836;50.948;3.946;2022-07-18T05:35:47;4.30;;;2.42;;
31210;SDS011;17836;50.948;3.946;2022-07-18T05:38:12;2.63;;;1.47;;
31210;SDS011;17836;50.948;3.946;2022-07-18T05:40:38;2.22;;;1.70;;
31210;SDS011;17836;50.948;3.946;2022-07-18T05:43:04;2.13;;;1.40;;
31210;SDS011;17836;50.948;3.946;2022-07-18T05:45:29;4.78;;;1.50;;
31210;SDS011;17836;50.948;3.946;2022-07-18T05:47:54;2.53;;;1.52;;
31210;SDS011;17836;50.948;3.946;2022-07-18T05:50:20;2.30;;;1.23;;
31210;SDS011;17836;50.948;3.946;2022-07-18T05:52:45;2.75;;;1.23;;
31210;SDS011;17836;50.948;3.946;2022-07-18T05:55:11;2.90;;;1.47;;
31210;SDS011;17836;50.948;3.946;2022-07-18T05:57:36;3.65;;;1.67;;
31210;SDS011;17836;50.948;3.946;2022-07-18T06:00:06;2.13;;;1.35;;
31210;SDS011;17836;50.948;3.946;2022-07-18T06:02:32;2.45;;;1.10;;
31210;SDS011;17836;50.948;3.946;2022-07-18T06:04:58;1.60;;;0.90;;
31210;SDS011;17836;50.948;3.946;2022-07-18T06:07:23;2.72;;;1.33;;
31210;SDS011;17836;50.948;3.946;2022-07-18T06:09:48;2.60;;;1.50;;
31210;SDS011;17836;50.948;3.946;2022-07-18T06:12:14;4.23;;;1.70;;
31210;SDS011;17836;50.948;3.946;2022-07-18T06:14:40;1.95;;;1.10;;
31210;SDS011;17836;50.948;3.946;2022-07-18T06:17:05;1.83;;;1.20;;
31210;SDS011;17836;50.948;3.946;2022-07-18T06:19:30;4.53;;;1.40;;
31210;SDS011;17836;50.948;3.946;2022-07-18T06:21:56;3.90;;;1.73;;
31210;SDS011;17836;50.948;3.946;2022-07-18T06:24:21;1.70;;;1.15;;
31210;SDS011;17836;50.948;3.946;2022-07-18T06:26:47;3.10;;;1.40;;
31210;SDS011;17836;50.948;3.946;2022-07-18T06:29:14;2.33;;;0.98;;
31210;SDS011;17836;50.948;3.946;2022-07-18T06:31:39;3.77;;;1.13;;
31210;SDS011;17836;50.948;3.946;2022-07-18T06:34:05;4.05;;;1.23;;
31210;SDS011;17836;50.948;3.946;2022-07-18T06:36:31;5.53;;;1.33;;
31210;SDS011;17836;50.948;3.946;2022-07-18T06:38:56;1.80;;;1.00;;
31210;SDS011;17836;50.948;3.946;2022-07-18T06:41:21;1.83;;;1.00;;
31210;SDS011;17836;50.948;3.946;2022-07-18T06:43:47;5.18;;;1.30;;
31210;SDS011;17836;50.948;3.946;2022-07-18T06:46:12;3.20;;;1.20;;
31210;SDS011;17836;50.948;3.946;2022-07-18T06:48:38;5.10;;;0.95;;
31210;SDS011;17836;50.948;3.946;2022-07-18T06:51:04;4.25;;;1.10;;
31210;SDS011;17836;50.948;3.946;2022-07-18T06:53:32;2.33;;;1.33;;
31210;SDS011;17836;50.948;3.946;2022-07-18T06:55:58;3.25;;;1.23;;
31210;SDS011;17836;50.948;3.946;2022-07-18T06:58:24;1.50;;;0.95;;
31210;SDS011;17836;50.948;3.946;2022-07-18T07:00:50;3.13;;;1.02;;
31210;SDS011;17836;50.948;3.946;2022-07-18T07:03:16;2.03;;;0.80;;
31210;SDS011;17836;50.948;3.946;2022-07-18T07:05:42;2.38;;;1.63;;
31210;SDS011;17836;50.948;3.946;2022-07-18T07:08:08;2.30;;;1.25;;
31210;SDS011;17836;50.948;3.946;2022-07-18T07:10:34;2.15;;;0.90;;
31210;SDS011;17836;50.948;3.946;2022-07-18T07:13:00;3.10;;;1.00;;
31210;SDS011;17836;50.948;3.946;2022-07-18T07:15:25;1.70;;;0.90;;
31210;SDS011;17836;50.948;3.946;2022-07-18T07:17:51;1.42;;;0.88;;
31210;SDS011;17836;50.948;3.946;2022-07-18T07:20:19;2.05;;;0.80;;
31210;SDS011;17836;50.948;3.946;2022-07-18T07:22:49;3.72;;;1.27;;
31210;SDS011;17836;50.948;3.946;2022-07-18T07:25:15;0.75;;;0.60;;
31210;SDS011;17836;50.948;3.946;2022-07-18T07:27:41;1.05;;;0.70;;
31210;SDS011;17836;50.948;3.946;2022-07-18T07:30:07;2.45;;;0.80;;
31210;SDS011;17836;50.948;3.946;2022-07-18T07:32:36;1.80;;;1.08;;
31210;SDS011;17836;50.948;3.946;2022-07-18T07:35:02;1.90;;;1.02;;
31210;SDS011;17836;50.948;3.946;2022-07-18T07:37:28;1.35;;;0.70;;
31210;SDS011;17836;50.948;3.946;2022-07-18T07:39:53;3.60;;;0.80;;
31210;SDS011;17836;50.948;3.946;2022-07-18T07:42:19;1.65;;;0.80;;
31210;SDS011;17836;50.948;3.946;2022-07-18T07:44:44;3.10;;;0.83;;
31210;SDS011;17836;50.948;3.946;2022-07-18T07:47:10;1.77;;;0.80;;
31210;SDS011;17836;50.948;3.946;2022-07-18T07:49:35;1.17;;;0.80;;
31210;SDS011;17836;50.948;3.946;2022-07-18T07:52:01;1.00;;;0.73;;
31210;SDS011;17836;50.948;3.946;2022-07-18T07:54:27;1.52;;;0.60;;
31210;SDS011;17836;50.948;3.946;2022-07-18T07:56:53;1.10;;;0.80;;
31210;SDS011;17836;50.948;3.946;2022-07-18T07:59:19;1.35;;;0.70;;
31210;SDS011;17836;50.948;3.946;2022-07-18T08:01:44;5.00;;;0.75;;
31210;SDS011;17836;50.948;3.946;2022-07-18T08:04:10;1.52;;;0.93;;
31210;SDS011;17836;50.948;3.946;2022-07-18T08:06:35;1.10;;;0.80;;
31210;SDS011;17836;50.948;3.946;2022-07-18T08:09:01;0.93;;;0.77;;
31210;SDS011;17836;50.948;3.946;2022-07-18T08:11:26;1.83;;;0.80;;
31210;SDS011;17836;50.948;3.946;2022-07-18T08:13:52;0.70;;;0.60;;
31210;SDS011;17836;50.948;3.946;2022-07-18T08:16:19;1.58;;;0.68;;
31210;SDS011;17836;50.948;3.946;2022-07-18T08:18:44;2.33;;;0.90;;
31210;SDS011;17836;50.948;3.946;2022-07-18T08:21:09;1.60;;;0.70;;
31210;SDS011;17836;50.948;3.946;2022-07-18T08:23:34;1.60;;;0.70;;
31210;SDS011;17836;50.948;3.946;2022-07-18T08:26:01;1.33;;;0.70;;
31210;SDS011;17836;50.948;3.946;2022-07-18T08:28:26;2.30;;;0.70;;
31210;SDS011;17836;50.948;3.946;2022-07-18T08:30:52;1.10;;;0.70;;
31210;SDS011;17836;50.948;3.946;2022-07-18T08:33:17;1.97;;;0.90;;
31210;SDS011;17836;50.948;3.946;2022-07-18T08:35:43;1.65;;;0.73;;
31210;SDS011;17836;50.948;3.946;2022-07-18T08:38:08;2.07;;;0.70;;
31210;SDS011;17836;50.948;3.946;2022-07-18T08:40:33;1.27;;;0.83;;
31210;SDS011;17836;50.948;3.946;2022-07-18T08:43:00;1.23;;;1.00;;
31210;SDS011;17836;50.948;3.946;2022-07-18T08:45:25;1.77;;;0.77;;
31210;SDS011;17836;50.948;3.946;2022-07-18T08:47:51;3.80;;;0.88;;
31210;SDS011;17836;50.948;3.946;2022-07-18T08:50:17;1.75;;;0.70;;
31210;SDS011;17836;50.948;3.946;2022-07-18T08:52:43;1.13;;;0.65;;
31210;SDS011;17836;50.948;3.946;2022-07-18T08:55:08;2.25;;;0.60;;
31210;SDS011;17836;50.948;3.946;2022-07-18T08:57:34;1.98;;;0.90;;
31210;SDS011;17836;50.948;3.946;2022-07-18T09:00:04;2.80;;;1.10;;
31210;SDS011;17836;50.948;3.946;2022-07-18T09:02:30;0.97;;;0.80;;
31210;SDS011;17836;50.948;3.946;2022-07-18T09:04:55;1.27;;;0.60;;
31210;SDS011;17836;50.948;3.946;2022-07-18T09:07:25;0.95;;;0.70;;
31210;SDS011;17836;50.948;3.946;2022-07-18T09:09:52;0.53;;;0.43;;
31210;SDS011;17836;50.948;3.946;2022-07-18T09:12:18;1.67;;;0.70;;
31210;SDS011;17836;50.948;3.946;2022-07-18T09:14:44;1.27;;;0.85;;
31210;SDS011;17836;50.948;3.946;2022-07-18T09:17:11;1.40;;;0.40;;
31210;SDS011;17836;50.948;3.946;2022-07-18T09:19:37;1.13;;;0.57;;
31210;SDS011;17836;50.948;3.946;2022-07-18T09:22:12;0.70;;;0.60;;
31210;SDS011;17836;50.948;3.946;2022-07-18T09:27:23;1.00;;;0.52;;
31210;SDS011;17836;50.948;3.946;2022-07-18T09:29:58;2.28;;;1.00;;
31210;SDS011;17836;50.948;3.946;2022-07-18T09:32:31;5.68;;;0.73;;
31210;SDS011;17836;50.948;3.946;2022-07-18T09:34:56;2.20;;;0.63;;
31210;SDS011;17836;50.948;3.946;2022-07-18T09:37:28;1.08;;;0.52;;
31210;SDS011;17836;50.948;3.946;2022-07-18T09:39:55;0.80;;;0.70;;
31210;SDS011;17836;50.948;3.946;2022-07-18T09:42:38;1.67;;;0.70;;
31210;SDS011;17836;50.948;3.946;2022-07-18T09:45:03;0.50;;;0.40;;
31210;SDS011;17836;50.948;3.946;2022-07-18T09:47:29;2.30;;;0.50;;
31210;SDS011;17836;50.948;3.946;2022-07-18T09:49:54;2.00;;;0.57;;
31210;SDS011;17836;50.948;3.946;2022-07-18T09:52:20;0.70;;;0.50;;
31210;SDS011;17836;50.948;3.946;2022-07-18T09:54:46;4.35;;;0.65;;
31210;SDS011;17836;50.948;3.946;2022-07-18T09:57:24;1.43;;;0.60;;
31210;SDS011;17836;50.948;3.946;2022-07-18T09:59:50;4.25;;;0.77;;
31210;SDS011;17836;50.948;3.946;2022-07-18T10:02:16;0.90;;;0.60;;
31210;SDS011;17836;50.948;3.946;2022-07-18T10:04:44;0.88;;;0.45;;
31210;SDS011;17836;50.948;3.946;2022-07-18T10:07:09;2.50;;;0.90;;
31210;SDS011;17836;50.948;3.946;2022-07-18T10:09:35;1.13;;;0.70;;
31210;SDS011;17836;50.948;3.946;2022-07-18T10:12:02;0.55;;;0.30;;
31210;SDS011;17836;50.948;3.946;2022-07-18T10:14:28;0.60;;;0.40;;
31210;SDS011;17836;50.948;3.946;2022-07-18T10:16:54;1.27;;;0.73;;
31210;SDS011;17836;50.948;3.946;2022-07-18T10:19:20;1.08;;;0.60;;
31210;SDS011;17836;50.948;3.946;2022-07-18T10:21:48;1.33;;;0.60;;
31210;SDS011;17836;50.948;3.946;2022-07-18T10:24:15;1.17;;;0.40;;
31210;SDS011;17836;50.948;3.946;2022-07-18T10:26:41;2.28;;;0.68;;
31210;SDS011;17836;50.948;3.946;2022-07-18T10:29:16;0.68;;;0.57;;
31210;SDS011;17836;50.948;3.946;2022-07-18T10:31:58;1.30;;;0.60;;
31210;SDS011;17836;50.948;3.946;2022-07-18T10:34:32;0.68;;;0.40;;
31210;SDS011;17836;50.948;3.946;2022-07-18T10:39:34;0.90;;;0.60;;
31210;SDS011;17836;50.948;3.946;2022-07-18T10:47:06;0.85;;;0.45;;
31210;SDS011;17836;50.948;3.946;2022-07-18T11:02:46;0.90;;;0.80;;
31210;SDS011;17836;50.948;3.946;2022-07-18T11:05:31;1.17;;;0.57;;
31210;SDS011;17836;50.948;3.946;2022-07-18T11:18:14;0.88;;;0.70;;
31210;SDS011;17836;50.948;3.946;2022-07-18T11:20:40;0.70;;;0.60;;
31210;SDS011;17836;50.948;3.946;2022-07-18T11:23:16;0.75;;;0.65;;
31210;SDS011;17836;50.948;3.946;2022-07-18T11:25:42;1.13;;;0.70;;
31210;SDS011;17836;50.948;3.946;2022-07-18T11:28:08;0.60;;;0.50;;
31210;SDS011;17836;50.948;3.946;2022-07-18T11:30:34;1.10;;;0.40;;
31210;SDS011;17836;50.948;3.946;2022-07-18T11:32:59;1.95;;;0.70;;
31210;SDS011;17836;50.948;3.946;2022-07-18T11:35:25;1.10;;;0.60;;
31210;SDS011;17836;50.948;3.946;2022-07-18T11:37:52;0.50;;;0.50;;
31210;SDS011;17836;50.948;3.946;2022-07-18T11:40:18;0.77;;;0.70;;
31210;SDS011;17836;50.948;3.946;2022-07-18T11:42:44;0.93;;;0.70;;
31210;SDS011;17836;50.948;3.946;2022-07-18T11:45:11;1.05;;;0.75;;
31210;SDS011;17836;50.948;3.946;2022-07-18T11:47:58;0.55;;;0.40;;
31210;SDS011;17836;50.948;3.946;2022-07-18T11:50:34;1.00;;;0.60;;
31210;SDS011;17836;50.948;3.946;2022-07-18T11:52:59;3.08;;;0.63;;
31210;SDS011;17836;50.948;3.946;2022-07-18T11:55:35;0.95;;;0.55;;
31210;SDS011;17836;50.948;3.946;2022-07-18T11:58:07;0.68;;;0.60;;
31210;SDS011;17836;50.948;3.946;2022-07-18T12:00:33;0.40;;;0.40;;
31210;SDS011;17836;50.948;3.946;2022-07-18T12:05:40;0.43;;;0.40;;
31210;SDS011;17836;50.948;3.946;2022-07-18T12:18:55;0.40;;;0.40;;
31210;SDS011;17836;50.948;3.946;2022-07-18T12:21:21;1.83;;;0.60;;
31210;SDS011;17836;50.948;3.946;2022-07-18T12:23:46;1.50;;;0.93;;
31210;SDS011;17836;50.948;3.946;2022-07-18T12:26:30;0.90;;;0.60;;
31210;SDS011;17836;50.948;3.946;2022-07-18T12:29:07;0.65;;;0.50;;
31210;SDS011;17836;50.948;3.946;2022-07-18T12:31:43;0.77;;;0.70;;
31210;SDS011;17836;50.948;3.946;2022-07-18T12:34:13;3.47;;;0.75;;
31210;SDS011;17836;50.948;3.946;2022-07-18T12:36:57;1.73;;;0.57;;
31210;SDS011;17836;50.948;3.946;2022-07-18T12:39:27;1.15;;;0.60;;
31210;SDS011;17836;50.948;3.946;2022-07-18T12:41:52;1.13;;;0.40;;
31210;SDS011;17836;50.948;3.946;2022-07-18T12:44:18;1.17;;;0.53;;
31210;SDS011;17836;50.948;3.946;2022-07-18T12:46:43;1.17;;;0.57;;
31210;SDS011;17836;50.948;3.946;2022-07-18T12:49:08;0.73;;;0.50;;
31210;SDS011;17836;50.948;3.946;2022-07-18T12:51:33;1.37;;;0.80;;
31210;SDS011;17836;50.948;3.946;2022-07-18T12:53:59;1.02;;;0.40;;
31210;SDS011;17836;50.948;3.946;2022-07-18T12:56:24;0.60;;;0.50;;
31210;SDS011;17836;50.948;3.946;2022-07-18T12:58:49;2.40;;;0.60;;
31210;SDS011;17836;50.948;3.946;2022-07-18T13:01:15;2.57;;;0.57;;
31210;SDS011;17836;50.948;3.946;2022-07-18T13:03:40;0.60;;;0.33;;
31210;SDS011;17836;50.948;3.946;2022-07-18T13:06:06;0.50;;;0.40;;
31210;SDS011;17836;50.948;3.946;2022-07-18T13:08:31;0.60;;;0.40;;
31210;SDS011;17836;50.948;3.946;2022-07-18T13:10:57;0.40;;;0.40;;
31210;SDS011;17836;50.948;3.946;2022-07-18T13:13:24;0.95;;;0.50;;
31210;SDS011;17836;50.948;3.946;2022-07-18T13:15:49;0.93;;;0.55;;
31210;SDS011;17836;50.948;3.946;2022-07-18T13:18:15;0.85;;;0.50;;
31210;SDS011;17836;50.948;3.946;2022-07-18T13:20:41;0.90;;;0.55;;
31210;SDS011;17836;50.948;3.946;2022-07-18T13:23:06;1.73;;;0.50;;
31210;SDS011;17836;50.948;3.946;2022-07-18T13:25:32;0.60;;;0.60;;
31210;SDS011;17836;50.948;3.946;2022-07-18T13:28:00;0.82;;;0.60;;
31210;SDS011;17836;50.948;3.946;2022-07-18T13:30:26;1.00;;;0.60;;
31210;SDS011;17836;50.948;3.946;2022-07-18T13:32:51;1.33;;;0.60;;
31210;SDS011;17836;50.948;3.946;2022-07-18T13:35:17;0.50;;;0.50;;
31210;SDS011;17836;50.948;3.946;2022-07-18T13:37:43;0.50;;;0.40;;
31210;SDS011;17836;50.948;3.946;2022-07-18T13:40:09;0.73;;;0.50;;
31210;SDS011;17836;50.948;3.946;2022-07-18T13:42:35;0.52;;;0.45;;
31210;SDS011;17836;50.948;3.946;2022-07-18T13:45:00;1.92;;;0.47;;
31210;SDS011;17836;50.948;3.946;2022-07-18T13:47:25;1.07;;;0.50;;
31210;SDS011;17836;50.948;3.946;2022-07-18T13:49:51;0.50;;;0.50;;
31210;SDS011;17836;50.948;3.946;2022-07-18T13:52:16;2.13;;;0.45;;
31210;SDS011;17836;50.948;3.946;2022-07-18T13:54:41;2.73;;;0.50;;
31210;SDS011;17836;50.948;3.946;2022-07-18T13:57:07;0.77;;;0.50;;
31210;SDS011;17836;50.948;3.946;2022-07-18T13:59:32;4.33;;;0.40;;
31210;SDS011;17836;50.948;3.946;2022-07-18T14:01:58;0.50;;;0.40;;
31210;SDS011;17836;50.948;3.946;2022-07-18T14:04:23;0.53;;;0.53;;
31210;SDS011;17836;50.948;3.946;2022-07-18T14:06:49;0.93;;;0.60;;
31210;SDS011;17836;50.948;3.946;2022-07-18T14:09:16;0.73;;;0.47;;
31210;SDS011;17836;50.948;3.946;2022-07-18T14:11:41;0.60;;;0.50;;
31210;SDS011;17836;50.948;3.946;2022-07-18T14:14:06;0.93;;;0.50;;
31210;SDS011;17836;50.948;3.946;2022-07-18T14:16:34;3.30;;;0.60;;
31210;SDS011;17836;50.948;3.946;2022-07-18T14:18:59;1.30;;;0.55;;
31210;SDS011;17836;50.948;3.946;2022-07-18T14:21:25;0.50;;;0.50;;
31210;SDS011;17836;50.948;3.946;2022-07-18T14:23:51;0.52;;;0.45;;
31210;SDS011;17836;50.948;3.946;2022-07-18T14:26:16;0.77;;;0.43;;
31210;SDS011;17836;50.948;3.946;2022-07-18T14:28:42;1.05;;;0.65;;
31210;SDS011;17836;50.948;3.946;2022-07-18T14:31:09;0.60;;;0.43;;
31210;SDS011;17836;50.948;3.946;2022-07-18T14:33:34;1.45;;;0.68;;
31210;SDS011;17836;50.948;3.946;2022-07-18T14:36:00;0.85;;;0.50;;
31210;SDS011;17836;50.948;3.946;2022-07-18T14:38:25;3.47;;;0.60;;
31210;SDS011;17836;50.948;3.946;2022-07-18T14:40:51;0.85;;;0.50;;
31210;SDS011;17836;50.948;3.946;2022-07-18T14:43:17;2.55;;;0.60;;
31210;SDS011;17836;50.948;3.946;2022-07-18T14:45:42;0.60;;;0.60;;
31210;SDS011;17836;50.948;3.946;2022-07-18T14:48:10;0.93;;;0.60;;
31210;SDS011;17836;50.948;3.946;2022-07-18T14:50:36;0.82;;;0.40;;
31210;SDS011;17836;50.948;3.946;2022-07-18T14:53:01;1.40;;;0.60;;
31210;SDS011;17836;50.948;3.946;2022-07-18T14:55:27;1.17;;;0.65;;
31210;SDS011;17836;50.948;3.946;2022-07-18T14:57:52;0.50;;;0.40;;
31210;SDS011;17836;50.948;3.946;2022-07-18T15:00:17;0.90;;;0.43;;
31210;SDS011;17836;50.948;3.946;2022-07-18T15:02:43;1.30;;;0.87;;
31210;SDS011;17836;50.948;3.946;2022-07-18T15:05:09;1.90;;;0.65;;
31210;SDS011;17836;50.948;3.946;2022-07-18T15:07:34;0.60;;;0.50;;
31210;SDS011;17836;50.948;3.946;2022-07-18T15:10:00;0.60;;;0.52;;
31210;SDS011;17836;50.948;3.946;2022-07-18T15:12:25;0.77;;;0.60;;
31210;SDS011;17836;50.948;3.946;2022-07-18T15:14:50;1.00;;;0.60;;
31210;SDS011;17836;50.948;3.946;2022-07-18T15:17:16;1.25;;;0.40;;
31210;SDS011;17836;50.948;3.946;2022-07-18T15:19:42;0.50;;;0.50;;
31210;SDS011;17836;50.948;3.946;2022-07-18T15:22:07;0.40;;;0.40;;
31210;SDS011;17836;50.948;3.946;2022-07-18T15:24:33;1.10;;;0.47;;
31210;SDS011;17836;50.948;3.946;2022-07-18T15:26:59;0.70;;;0.43;;
31210;SDS011;17836;50.948;3.946;2022-07-18T15:29:27;0.90;;;0.50;;